createdAt,value
2023-12-30T00:00:54.222Z,2.47
2023-12-30T00:03:22.730Z,2.83
2023-12-30T00:05:50.950Z,6.97
2023-12-30T00:08:20.456Z,5.37
2023-12-30T00:10:48.554Z,4.97
2023-12-30T00:13:16.775Z,4.27
2023-12-30T00:15:44.869Z,3.20
2023-12-30T00:18:13.020Z,2.47
2023-12-30T00:20:41.104Z,2.53
2023-12-30T00:23:09.614Z,2.80
2023-12-30T00:25:38.953Z,2.60
2023-12-30T00:28:09.618Z,3.30
2023-12-30T00:30:37.874Z,4.20
2023-12-30T00:33:06.550Z,2.90
2023-12-30T00:35:35.046Z,3.07
2023-12-30T00:38:03.043Z,2.30
2023-12-30T00:40:31.181Z,2.37
2023-12-30T00:43:01.035Z,2.47
2023-12-30T00:45:29.254Z,2.90
2023-12-30T00:47:57.452Z,2.40
2023-12-30T00:50:25.679Z,2.30
2023-12-30T00:52:53.864Z,2.60
2023-12-30T00:55:21.966Z,2.23
2023-12-30T00:57:50.055Z,2.47
2023-12-30T01:00:20.376Z,2.10
2023-12-30T01:02:48.501Z,2.47
2023-12-30T01:05:16.813Z,2.50
2023-12-30T01:07:45.024Z,2.40
2023-12-30T01:10:16.085Z,2.70
2023-12-30T01:12:44.091Z,2.27
2023-12-30T01:15:15.237Z,2.10
2023-12-30T01:17:45.173Z,2.60
2023-12-30T01:20:13.829Z,2.37
2023-12-30T01:22:42.276Z,2.67
2023-12-30T01:25:10.748Z,2.03
2023-12-30T01:27:39.264Z,2.40
2023-12-30T01:30:10.316Z,2.07
2023-12-30T01:32:38.775Z,2.17
2023-12-30T01:35:09.566Z,2.43
2023-12-30T01:37:38.357Z,2.07
2023-12-30T01:40:07.599Z,2.20
2023-12-30T01:42:35.692Z,2.10
2023-12-30T01:45:03.779Z,2.30
2023-12-30T01:47:32.230Z,1.80
2023-12-30T01:50:00.481Z,1.80
2023-12-30T01:52:30.589Z,2.20
2023-12-30T01:55:01.973Z,2.40
2023-12-30T01:57:30.204Z,2.33
2023-12-30T02:00:00.808Z,1.93
2023-12-30T02:02:30.342Z,2.10
2023-12-30T02:04:58.597Z,2.00
2023-12-30T02:07:27.063Z,2.20
2023-12-30T02:09:56.475Z,2.10
2023-12-30T02:12:24.540Z,2.17
2023-12-30T02:14:52.603Z,1.93
2023-12-30T02:17:20.647Z,2.20
2023-12-30T02:19:51.844Z,1.73
2023-12-30T02:22:20.431Z,3.47
2023-12-30T02:24:50.000Z,2.33
2023-12-30T02:27:18.089Z,2.27
2023-12-30T02:29:46.171Z,3.20
2023-12-30T02:32:15.127Z,3.50
2023-12-30T02:34:46.112Z,2.90
2023-12-30T02:37:14.345Z,2.33
2023-12-30T02:39:42.314Z,2.77
2023-12-30T02:42:12.008Z,2.30
2023-12-30T02:44:40.092Z,2.20
2023-12-30T02:47:08.353Z,2.40
2023-12-30T02:49:37.127Z,2.00
2023-12-30T02:52:05.678Z,2.60
2023-12-30T02:54:34.070Z,2.23
2023-12-30T02:57:03.994Z,1.90
2023-12-30T02:59:33.624Z,1.73
2023-12-30T03:02:01.861Z,2.13
2023-12-30T03:04:29.945Z,1.93
2023-12-30T03:06:58.245Z,1.60
2023-12-30T03:09:28.031Z,2.20
2023-12-30T03:11:56.257Z,1.90
2023-12-30T03:14:24.352Z,1.70
2023-12-30T03:16:53.748Z,1.80
2023-12-30T03:19:21.898Z,1.63
2023-12-30T03:21:50.255Z,1.87
2023-12-30T03:24:18.360Z,1.70
2023-12-30T03:26:46.409Z,1.70
2023-12-30T03:29:14.789Z,2.10
2023-12-30T03:31:45.859Z,2.20
2023-12-30T03:34:18.711Z,2.70
2023-12-30T03:36:46.655Z,1.97
2023-12-30T03:39:15.217Z,2.03
2023-12-30T03:41:43.527Z,1.60
2023-12-30T03:44:11.495Z,1.60
2023-12-30T03:46:39.557Z,1.70
2023-12-30T03:49:07.642Z,2.10
2023-12-30T03:51:37.274Z,2.30
2023-12-30T03:54:06.048Z,1.83
2023-12-30T03:56:34.390Z,1.50
2023-12-30T03:59:02.385Z,1.83
2023-12-30T04:01:30.538Z,2.00
2023-12-30T04:04:01.584Z,2.10
2023-12-30T04:06:29.849Z,2.00
2023-12-30T04:08:59.295Z,2.63
2023-12-30T04:11:30.070Z,2.30
2023-12-30T04:13:58.199Z,2.13
2023-12-30T04:16:29.113Z,3.00
2023-12-30T04:18:57.341Z,2.00
2023-12-30T04:21:25.992Z,2.30
2023-12-30T04:23:56.018Z,2.47
2023-12-30T04:26:25.337Z,1.77
2023-12-30T04:28:53.443Z,2.07
2023-12-30T04:31:21.451Z,2.20
2023-12-30T04:33:49.782Z,1.97
2023-12-30T04:36:17.817Z,2.17
2023-12-30T04:38:47.320Z,1.97
2023-12-30T04:41:15.937Z,2.63
2023-12-30T04:43:45.252Z,1.97
2023-12-30T04:46:13.829Z,2.43
2023-12-30T04:48:44.125Z,2.50
2023-12-30T04:51:12.678Z,2.40
2023-12-30T04:53:40.749Z,2.10
2023-12-30T04:56:09.654Z,2.20
2023-12-30T04:58:37.670Z,2.50
2023-12-30T05:01:07.188Z,1.77
2023-12-30T05:03:35.334Z,2.40
2023-12-30T05:06:04.379Z,2.50
2023-12-30T05:08:34.981Z,2.07
2023-12-30T05:11:07.526Z,1.80
2023-12-30T05:13:35.617Z,1.97
2023-12-30T05:16:03.797Z,1.70
2023-12-30T05:18:33.872Z,1.60
2023-12-30T05:21:02.242Z,2.07
2023-12-30T05:23:30.228Z,2.10
2023-12-30T05:25:58.323Z,2.07
2023-12-30T05:28:26.387Z,2.10
2023-12-30T05:30:54.506Z,1.63
2023-12-30T05:33:22.680Z,2.30
2023-12-30T05:35:52.073Z,2.30
2023-12-30T05:38:20.274Z,2.47
2023-12-30T05:40:48.447Z,2.00
2023-12-30T05:43:16.451Z,2.10
2023-12-30T05:45:45.244Z,2.10
2023-12-30T05:48:14.765Z,2.17
2023-12-30T05:50:42.850Z,1.80
2023-12-30T05:53:13.282Z,1.87
2023-12-30T05:55:41.930Z,1.53
2023-12-30T05:58:10.012Z,2.10
2023-12-30T06:00:38.169Z,2.17
2023-12-30T06:03:06.942Z,2.03
2023-12-30T06:05:35.096Z,2.90
2023-12-30T06:08:03.039Z,2.60
2023-12-30T06:10:32.406Z,2.67
2023-12-30T06:13:00.774Z,2.53
2023-12-30T06:15:29.398Z,2.30
2023-12-30T06:17:57.510Z,2.63
2023-12-30T06:20:25.646Z,2.67
2023-12-30T06:22:53.682Z,2.57
2023-12-30T06:25:21.892Z,2.80
2023-12-30T06:27:51.309Z,3.00
2023-12-30T06:30:19.614Z,3.10
2023-12-30T06:32:48.941Z,2.83
2023-12-30T06:35:17.044Z,3.23
2023-12-30T06:37:45.345Z,6.33
2023-12-30T06:40:13.690Z,6.27
2023-12-30T06:42:41.667Z,4.27
2023-12-30T06:45:11.856Z,3.57
2023-12-30T06:47:39.954Z,3.00
2023-12-30T06:50:09.110Z,2.93
2023-12-30T06:52:37.154Z,2.90
2023-12-30T06:55:15.443Z,2.70
2023-12-30T06:57:49.332Z,2.90
2023-12-30T07:00:19.682Z,2.93
2023-12-30T07:02:47.795Z,3.13
2023-12-30T07:05:16.177Z,2.60
2023-12-30T07:07:44.617Z,2.60
2023-12-30T07:10:13.346Z,3.73
2023-12-30T07:12:44.129Z,3.13
2023-12-30T07:15:12.314Z,3.20
2023-12-30T07:17:41.761Z,3.30
2023-12-30T07:20:10.637Z,3.77
2023-12-30T07:22:38.832Z,3.13
2023-12-30T07:25:07.808Z,4.03
2023-12-30T07:27:36.250Z,3.80
2023-12-30T07:30:05.794Z,4.23
2023-12-30T07:32:34.004Z,3.43
2023-12-30T07:35:05.097Z,3.67
2023-12-30T07:37:33.254Z,2.67
2023-12-30T07:40:02.685Z,3.27
2023-12-30T07:42:30.880Z,2.90
2023-12-30T07:44:58.924Z,3.07
2023-12-30T07:47:27.967Z,2.30
2023-12-30T07:49:56.190Z,2.37
2023-12-30T07:52:25.941Z,3.13
2023-12-30T07:54:54.094Z,2.50
2023-12-30T07:57:22.177Z,4.37
2023-12-30T07:59:50.828Z,2.53
2023-12-30T08:02:19.005Z,2.47
2023-12-30T08:04:47.093Z,2.37
2023-12-30T08:07:16.599Z,2.60
2023-12-30T08:09:49.995Z,2.57
2023-12-30T08:12:18.023Z,2.00
2023-12-30T08:14:46.090Z,2.30
2023-12-30T08:17:14.578Z,2.60
2023-12-30T08:19:42.683Z,2.70
2023-12-30T08:22:10.844Z,2.40
2023-12-30T08:24:39.528Z,1.80
2023-12-30T08:27:08.926Z,2.57
2023-12-30T08:29:36.959Z,1.97
2023-12-30T08:32:07.905Z,2.40
2023-12-30T08:34:36.105Z,2.37
2023-12-30T08:37:09.490Z,2.40
2023-12-30T08:39:39.817Z,2.60
2023-12-30T08:42:10.311Z,2.23
2023-12-30T08:44:44.444Z,2.10
2023-12-30T08:47:12.819Z,2.63
2023-12-30T08:49:41.315Z,2.80
2023-12-30T08:52:10.870Z,2.33
2023-12-30T08:54:41.686Z,3.10
2023-12-30T08:57:11.144Z,2.93
2023-12-30T08:59:39.519Z,2.83
2023-12-30T09:02:09.206Z,2.60
2023-12-30T09:04:37.719Z,2.27
2023-12-30T09:07:06.052Z,2.67
2023-12-30T09:09:34.653Z,2.30
2023-12-30T09:12:03.639Z,2.93
2023-12-30T09:14:33.149Z,3.00
2023-12-30T09:17:01.623Z,2.90
2023-12-30T09:19:29.837Z,2.93
2023-12-30T09:21:57.992Z,2.83
2023-12-30T09:24:26.000Z,3.40
2023-12-30T09:26:53.979Z,2.90
2023-12-30T09:29:22.449Z,2.60
2023-12-30T09:31:51.961Z,3.20
2023-12-30T09:34:29.965Z,3.67
2023-12-30T09:37:07.229Z,2.67
2023-12-30T09:39:35.690Z,2.90
2023-12-30T09:42:05.393Z,3.00
2023-12-30T09:44:36.633Z,2.70
2023-12-30T09:47:09.072Z,3.03
2023-12-30T09:49:38.557Z,2.97
2023-12-30T09:52:08.186Z,2.97
2023-12-30T09:54:45.530Z,3.10
2023-12-30T09:57:17.627Z,3.70
2023-12-30T09:59:47.785Z,2.70
2023-12-30T10:02:17.204Z,2.90
2023-12-30T10:04:46.030Z,3.40
2023-12-30T10:07:14.838Z,3.47
2023-12-30T10:09:43.230Z,3.07
2023-12-30T10:12:11.543Z,2.57
2023-12-30T10:14:40.020Z,3.13
2023-12-30T10:17:08.294Z,2.63
2023-12-30T10:19:38.281Z,2.50
2023-12-30T10:22:06.691Z,2.40
2023-12-30T10:24:34.860Z,2.40
2023-12-30T10:27:05.600Z,2.80
2023-12-30T10:29:43.157Z,2.97
2023-12-30T10:32:23.300Z,3.23
2023-12-30T10:34:53.161Z,2.83
2023-12-30T10:37:25.465Z,2.63
2023-12-30T10:39:57.033Z,2.80
2023-12-30T10:42:25.585Z,2.57
2023-12-30T10:44:56.479Z,3.00
2023-12-30T10:47:26.432Z,2.87
2023-12-30T10:50:06.054Z,3.00
2023-12-30T10:52:36.144Z,2.43
2023-12-30T10:55:11.755Z,2.60
2023-12-30T10:57:47.172Z,2.27
2023-12-30T11:00:21.213Z,2.17
2023-12-30T11:02:50.740Z,2.23
2023-12-30T11:05:26.339Z,2.93
2023-12-30T11:07:54.899Z,2.60
2023-12-30T11:10:23.701Z,3.17
2023-12-30T11:12:54.260Z,2.30
2023-12-30T11:15:27.439Z,2.20
2023-12-30T11:17:55.868Z,2.63
2023-12-30T11:20:27.261Z,2.75
2023-12-30T11:22:56.193Z,2.67
2023-12-30T11:25:24.434Z,2.43
2023-12-30T11:27:55.604Z,2.17
2023-12-30T11:30:28.182Z,2.83
2023-12-30T11:32:59.438Z,2.03
2023-12-30T11:35:29.392Z,2.13
2023-12-30T11:37:59.365Z,2.40
2023-12-30T11:40:31.003Z,2.17
2023-12-30T11:42:59.188Z,2.47
2023-12-30T11:45:27.847Z,1.87
2023-12-30T11:47:56.208Z,2.17
2023-12-30T11:50:24.453Z,2.73
2023-12-30T11:52:54.603Z,2.13
2023-12-30T11:55:23.774Z,2.60
2023-12-30T11:57:52.287Z,2.65
2023-12-30T12:00:22.471Z,2.50
2023-12-30T12:02:51.172Z,1.83
2023-12-30T12:05:19.392Z,2.33
2023-12-30T12:07:47.508Z,2.45
2023-12-30T12:10:17.432Z,2.27
2023-12-30T12:12:46.741Z,1.87
2023-12-30T12:15:15.324Z,2.07
2023-12-30T12:17:43.996Z,2.33
2023-12-30T12:20:12.823Z,2.23
2023-12-30T12:22:41.149Z,2.00
2023-12-30T12:25:10.929Z,2.10
2023-12-30T12:27:41.429Z,2.17
2023-12-30T12:30:11.106Z,2.80
2023-12-30T12:32:39.354Z,2.03
2023-12-30T12:35:08.294Z,1.93
2023-12-30T12:37:37.974Z,2.73
2023-12-30T12:40:12.059Z,1.63
2023-12-30T12:42:41.760Z,2.33
2023-12-30T12:45:11.716Z,1.70
2023-12-30T12:47:40.005Z,2.37
2023-12-30T12:50:09.025Z,2.30
2023-12-30T12:52:37.386Z,2.73
2023-12-30T12:55:06.566Z,2.77
2023-12-30T12:57:34.917Z,3.10
2023-12-30T13:00:08.260Z,2.20
2023-12-30T13:02:38.051Z,1.80
2023-12-30T13:05:07.333Z,2.00
2023-12-30T13:07:36.197Z,2.07
2023-12-30T13:10:18.433Z,3.20
2023-12-30T13:12:47.493Z,2.03
2023-12-30T13:15:21.029Z,1.93
2023-12-30T13:17:49.568Z,2.00
2023-12-30T13:20:18.693Z,2.07
2023-12-30T13:22:47.261Z,2.30
2023-12-30T13:25:16.056Z,3.07
2023-12-30T13:27:44.595Z,1.87
2023-12-30T13:30:13.608Z,2.20
2023-12-30T13:32:44.172Z,2.17
2023-12-30T13:35:12.865Z,2.00
2023-12-30T13:37:44.553Z,2.30
2023-12-30T13:40:15.024Z,2.17
2023-12-30T13:42:45.014Z,2.10
2023-12-30T13:45:15.449Z,1.87
2023-12-30T13:48:13.764Z,1.67
2023-12-30T13:50:52.520Z,1.93
2023-12-30T13:53:25.025Z,2.17
2023-12-30T13:55:54.752Z,2.50
2023-12-30T13:58:22.757Z,3.00
2023-12-30T14:00:51.608Z,2.90
2023-12-30T14:03:21.049Z,2.37
2023-12-30T14:05:49.454Z,2.10
2023-12-30T14:08:24.297Z,2.20
2023-12-30T14:10:54.984Z,2.07
2023-12-30T14:13:24.635Z,1.90
2023-12-30T14:15:53.392Z,2.40
2023-12-30T14:18:23.111Z,2.90
2023-12-30T14:20:51.704Z,2.30
2023-12-30T14:23:19.727Z,2.33
2023-12-30T14:25:48.020Z,2.43
2023-12-30T14:28:16.316Z,2.20
2023-12-30T14:30:45.734Z,2.43
2023-12-30T14:33:14.296Z,2.13
2023-12-30T14:35:43.862Z,2.47
2023-12-30T14:38:12.183Z,2.43
2023-12-30T14:40:40.604Z,2.27
2023-12-30T14:43:08.954Z,2.90
2023-12-30T14:45:37.505Z,3.00
2023-12-30T14:48:06.801Z,2.63
2023-12-30T14:50:34.911Z,2.50
2023-12-30T14:53:05.006Z,2.13
2023-12-30T14:55:33.310Z,2.60
2023-12-30T14:58:01.655Z,2.87
2023-12-30T15:00:29.935Z,2.40
2023-12-30T15:03:01.325Z,2.20
2023-12-30T15:05:29.890Z,2.33
2023-12-30T15:07:58.377Z,3.67
2023-12-30T15:10:28.038Z,3.30
2023-12-30T15:12:56.375Z,2.50
2023-12-30T15:15:25.258Z,2.27
2023-12-30T15:17:53.722Z,3.23
2023-12-30T15:20:27.206Z,2.60
2023-12-30T15:22:58.166Z,1.87
2023-12-30T15:25:28.121Z,2.50
2023-12-30T15:27:56.412Z,3.33
2023-12-30T15:30:24.484Z,2.77
2023-12-30T15:32:54.080Z,2.47
2023-12-30T15:35:22.729Z,3.53
2023-12-30T15:37:51.321Z,3.33
2023-12-30T15:40:20.393Z,3.03
2023-12-30T15:42:51.018Z,2.90
2023-12-30T15:45:19.605Z,3.20
2023-12-30T15:47:49.174Z,2.83
2023-12-30T15:50:17.678Z,2.30
2023-12-30T15:52:47.309Z,2.80
2023-12-30T15:55:16.143Z,3.10
2023-12-30T15:57:44.638Z,3.73
2023-12-30T16:00:15.686Z,4.20
2023-12-30T16:02:43.750Z,3.50
2023-12-30T16:05:11.879Z,3.77
2023-12-30T16:07:40.250Z,4.10
2023-12-30T16:10:09.367Z,3.30
2023-12-30T16:12:38.003Z,3.73
2023-12-30T16:15:07.592Z,3.40
2023-12-30T16:17:37.200Z,3.87
2023-12-30T16:20:07.831Z,3.83
2023-12-30T16:22:36.090Z,3.87
2023-12-30T16:25:11.283Z,3.73
2023-12-30T16:27:39.430Z,3.40
2023-12-30T16:30:08.894Z,3.40
2023-12-30T16:32:38.808Z,3.73
2023-12-30T16:35:07.438Z,3.10
2023-12-30T16:37:35.896Z,4.23
2023-12-30T16:40:05.586Z,3.57
2023-12-30T16:42:33.854Z,3.47
2023-12-30T16:45:02.253Z,4.30
2023-12-30T16:47:31.778Z,3.87
2023-12-30T16:50:01.384Z,4.10
2023-12-30T16:52:29.419Z,3.67
2023-12-30T16:54:57.575Z,3.80
2023-12-30T16:57:25.600Z,4.00
2023-12-30T16:59:54.136Z,4.30
2023-12-30T17:02:22.443Z,3.43
2023-12-30T17:04:52.126Z,3.60
2023-12-30T17:07:21.816Z,3.53
2023-12-30T17:09:49.881Z,3.70
2023-12-30T17:12:17.851Z,3.53
2023-12-30T17:14:46.117Z,3.93
2023-12-30T17:17:14.116Z,4.20
2023-12-30T17:19:43.519Z,3.63
2023-12-30T17:22:11.875Z,4.37
2023-12-30T17:24:41.844Z,4.50
2023-12-30T17:27:10.059Z,4.70
2023-12-30T17:29:38.151Z,4.40
2023-12-30T17:32:10.339Z,4.50
2023-12-30T17:34:39.640Z,4.97
2023-12-30T17:37:07.731Z,5.30
2023-12-30T17:39:35.939Z,5.53
2023-12-30T17:42:06.860Z,5.00
2023-12-30T17:44:34.822Z,4.70
2023-12-30T17:47:02.989Z,5.77
2023-12-30T17:49:31.189Z,5.63
2023-12-30T17:51:59.755Z,5.53
2023-12-30T17:54:28.181Z,10.33
2023-12-30T17:56:56.380Z,4.73
2023-12-30T17:59:26.127Z,4.97
2023-12-30T18:01:54.146Z,4.00
2023-12-30T18:04:22.684Z,4.17
2023-12-30T18:06:50.816Z,4.07
2023-12-30T18:09:19.679Z,3.77
2023-12-30T18:11:49.857Z,7.13
2023-12-30T18:14:19.873Z,5.20
2023-12-30T18:16:51.043Z,4.13
2023-12-30T18:19:19.303Z,5.07
2023-12-30T18:21:47.922Z,5.33
2023-12-30T18:24:16.017Z,6.50
2023-12-30T18:26:44.496Z,4.97
2023-12-30T18:29:12.883Z,5.03
2023-12-30T18:31:41.338Z,6.73
2023-12-30T18:34:10.956Z,4.20
2023-12-30T18:36:39.363Z,4.47
2023-12-30T18:39:07.682Z,4.00
2023-12-30T18:41:35.905Z,4.37
2023-12-30T18:44:04.267Z,4.40
2023-12-30T18:46:34.849Z,7.53
2023-12-30T18:49:03.282Z,5.50
2023-12-30T18:51:32.699Z,6.00
2023-12-30T18:54:00.688Z,4.83
2023-12-30T18:56:31.690Z,4.80
2023-12-30T18:59:00.078Z,5.23
2023-12-30T19:01:31.127Z,5.53
2023-12-30T19:04:02.639Z,5.20
2023-12-30T19:06:32.228Z,5.30
2023-12-30T19:09:00.484Z,5.67
2023-12-30T19:11:28.453Z,5.63
2023-12-30T19:13:56.519Z,6.60
2023-12-30T19:16:25.080Z,5.53
2023-12-30T19:18:53.237Z,6.07
2023-12-30T19:21:21.263Z,4.53
2023-12-30T19:23:50.622Z,3.77
2023-12-30T19:26:18.609Z,3.97
2023-12-30T19:28:47.035Z,3.23
2023-12-30T19:31:15.251Z,3.33
2023-12-30T19:33:43.761Z,3.23
2023-12-30T19:36:15.003Z,3.17
2023-12-30T19:38:43.640Z,3.90
2023-12-30T19:41:13.047Z,2.93
2023-12-30T19:43:41.125Z,2.47
2023-12-30T19:46:09.320Z,2.77
2023-12-30T19:48:38.034Z,2.67
2023-12-30T19:51:06.708Z,2.80
2023-12-30T19:53:37.169Z,3.17
2023-12-30T19:56:24.054Z,2.80
2023-12-30T19:58:52.427Z,2.80
2023-12-30T20:01:21.863Z,2.70
2023-12-30T20:03:52.858Z,2.90
2023-12-30T20:06:21.218Z,2.70
2023-12-30T20:08:49.604Z,2.63
2023-12-30T20:11:19.093Z,3.13
2023-12-30T20:13:49.539Z,2.70
2023-12-30T20:16:17.847Z,2.30
2023-12-30T20:18:46.165Z,2.50
2023-12-30T20:21:14.804Z,2.60
2023-12-30T20:23:43.355Z,2.97
2023-12-30T20:26:11.467Z,2.80
2023-12-30T20:28:40.966Z,3.30
2023-12-30T20:31:12.461Z,3.67
2023-12-30T20:33:40.623Z,3.33
2023-12-30T20:36:13.374Z,3.53
2023-12-30T20:38:42.061Z,3.73
2023-12-30T20:41:10.299Z,4.00
2023-12-30T20:43:45.652Z,3.97
2023-12-30T20:46:14.793Z,4.13
2023-12-30T20:48:45.022Z,3.63
2023-12-30T20:51:13.369Z,3.87
2023-12-30T20:53:43.863Z,3.30
2023-12-30T20:56:12.563Z,4.27
2023-12-30T20:58:40.822Z,4.30
2023-12-30T21:01:10.922Z,4.03
2023-12-30T21:03:39.620Z,3.80
2023-12-30T21:06:12.029Z,4.13
2023-12-30T21:08:43.291Z,4.13
2023-12-30T21:11:11.723Z,4.53
2023-12-30T21:13:48.939Z,4.53
2023-12-30T21:16:19.194Z,3.90
2023-12-30T21:18:47.978Z,4.50
2023-12-30T21:21:16.583Z,4.63
2023-12-30T21:23:46.664Z,4.50
2023-12-30T21:26:18.573Z,4.07
2023-12-30T21:28:49.437Z,5.07
2023-12-30T21:31:17.671Z,4.70
2023-12-30T21:33:52.809Z,3.97
2023-12-30T21:36:24.360Z,4.23
2023-12-30T21:38:53.556Z,4.40
2023-12-30T21:41:25.254Z,4.03
2023-12-30T21:43:55.446Z,4.97
2023-12-30T21:46:25.799Z,4.50
2023-12-30T21:49:02.352Z,5.87
2023-12-30T21:51:31.069Z,4.77
2023-12-30T21:54:06.472Z,4.70
2023-12-30T21:56:34.541Z,4.10
2023-12-30T21:59:11.715Z,4.27
2023-12-30T22:01:40.221Z,5.13
2023-12-30T22:04:09.083Z,4.70
2023-12-30T22:06:37.340Z,3.90
2023-12-30T22:09:07.285Z,3.50
2023-12-30T22:11:38.099Z,4.17
2023-12-30T22:14:08.262Z,4.10
2023-12-30T22:16:40.351Z,4.57
2023-12-30T22:19:11.054Z,4.43
2023-12-30T22:21:39.387Z,4.07
2023-12-30T22:24:08.308Z,4.23
2023-12-30T22:26:40.175Z,4.47
2023-12-30T22:29:13.002Z,4.07
2023-12-30T22:31:43.865Z,3.87
2023-12-30T22:34:13.451Z,4.20
2023-12-30T22:36:41.732Z,4.00
2023-12-30T22:39:12.422Z,4.00
2023-12-30T22:41:40.542Z,4.33
2023-12-30T22:44:25.788Z,3.93
2023-12-30T22:46:54.159Z,4.23
2023-12-30T22:49:22.398Z,4.00
2023-12-30T22:51:51.973Z,4.83
2023-12-30T22:54:20.493Z,5.70
2023-12-30T22:56:49.089Z,4.40
2023-12-30T22:59:19.009Z,4.37
2023-12-30T23:01:47.312Z,4.50
2023-12-30T23:04:15.468Z,4.50
2023-12-30T23:06:44.488Z,4.50
2023-12-30T23:09:12.675Z,4.47
2023-12-30T23:11:41.154Z,4.40
2023-12-30T23:14:09.354Z,4.77
2023-12-30T23:16:39.405Z,4.37
2023-12-30T23:19:08.013Z,4.93
2023-12-30T23:21:36.196Z,4.13
2023-12-30T23:24:05.056Z,4.67
2023-12-30T23:26:33.038Z,3.93
2023-12-30T23:29:01.017Z,4.53
2023-12-30T23:31:29.027Z,4.13
2023-12-30T23:33:59.252Z,4.70
2023-12-30T23:36:28.004Z,4.77
2023-12-30T23:38:56.022Z,4.87
2023-12-30T23:41:23.990Z,5.20
2023-12-30T23:43:52.902Z,4.70
2023-12-30T23:46:20.900Z,4.87
2023-12-30T23:48:49.092Z,5.13
2023-12-30T23:51:18.525Z,5.57
2023-12-30T23:53:46.503Z,4.77
2023-12-30T23:56:14.566Z,5.47
2023-12-30T23:58:43.282Z,5.40
